sensor_id;sensor_type;location;lat;lon;timestamp;P1;durP1;ratioP1;P2;durP2;ratioP2
68319;SDS011;55168;51.120;17.024;2023-04-02T00:03:02;18.6;;;16.6;;
68319;SDS011;55168;51.120;17.024;2023-04-02T00:15:00;18.3;;;15.9;;
68319;SDS011;55168;51.120;17.024;2023-04-02T00:16:02;18.3;;;15.9;;
68319;SDS011;55168;51.120;17.024;2023-04-02T00:18:00;18.3;;;15.9;;
68319;SDS011;55168;51.120;17.024;2023-04-02T00:19:03;19.5;;;16.0;;
68319;SDS011;55168;51.120;17.024;2023-04-02T00:22:00;19.5;;;16.0;;
68319;SDS011;55168;51.120;17.024;2023-04-02T00:23:01;19.5;;;16.0;;
68319;SDS011;55168;51.120;17.024;2023-04-02T00:24:01;18.3;;;14.8;;
68319;SDS011;55168;51.120;17.024;2023-04-02T00:25:07;18.3;;;14.8;;
68319;SDS011;55168;51.120;17.024;2023-04-02T00:26:00;18.3;;;14.8;;
68319;SDS011;55168;51.120;17.024;2023-04-02T00:27:00;18.3;;;14.8;;
68319;SDS011;55168;51.120;17.024;2023-04-02T00:31:00;22.0;;;18.1;;
68319;SDS011;55168;51.120;17.024;2023-04-02T00:32:00;22.0;;;18.1;;
68319;SDS011;55168;51.120;17.024;2023-04-02T00:33:00;22.0;;;18.1;;
68319;SDS011;55168;51.120;17.024;2023-04-02T00:37:00;20.4;;;17.1;;
68319;SDS011;55168;51.120;17.024;2023-04-02T00:39:02;20.4;;;17.1;;
68319;SDS011;55168;51.120;17.024;2023-04-02T00:40:01;20.4;;;17.1;;
68319;SDS011;55168;51.120;17.024;2023-04-02T00:41:02;20.4;;;17.1;;
68319;SDS011;55168;51.120;17.024;2023-04-02T00:42:01;20.4;;;17.1;;
68319;SDS011;55168;51.120;17.024;2023-04-02T00:43:00;20.4;;;17.1;;
68319;SDS011;55168;51.120;17.024;2023-04-02T00:45:01;17.6;;;14.7;;
68319;SDS011;55168;51.120;17.024;2023-04-02T00:46:03;17.6;;;14.7;;
68319;SDS011;55168;51.120;17.024;2023-04-02T00:47:06;17.6;;;14.7;;
68319;SDS011;55168;51.120;17.024;2023-04-02T00:49:13;19.4;;;15.3;;
68319;SDS011;55168;51.120;17.024;2023-04-02T00:51:09;19.4;;;15.3;;
68319;SDS011;55168;51.120;17.024;2023-04-02T00:52:03;19.4;;;15.3;;
68319;SDS011;55168;51.120;17.024;2023-04-02T00:53:09;19.4;;;15.3;;
68319;SDS011;55168;51.120;17.024;2023-04-02T00:54:03;19.6;;;15.2;;
68319;SDS011;55168;51.120;17.024;2023-04-02T00:55:12;19.6;;;15.2;;
68319;SDS011;55168;51.120;17.024;2023-04-02T00:56:00;19.6;;;15.2;;
68319;SDS011;55168;51.120;17.024;2023-04-02T00:57:00;19.6;;;15.2;;
68319;SDS011;55168;51.120;17.024;2023-04-02T01:06:10;24.4;;;18.3;;
68319;SDS011;55168;51.120;17.024;2023-04-02T01:07:04;24.4;;;18.3;;
68319;SDS011;55168;51.120;17.024;2023-04-02T01:09:03;19.8;;;14.5;;
68319;SDS011;55168;51.120;17.024;2023-04-02T01:11:10;unavailable;;;unavailable;;
68319;SDS011;55168;51.120;17.024;2023-04-02T01:13:08;19.8;;;14.5;;
68319;SDS011;55168;51.120;17.024;2023-04-02T01:15:24;17.0;;;14.3;;
68319;SDS011;55168;51.120;17.024;2023-04-02T01:17:08;17.0;;;14.3;;
68319;SDS011;55168;51.120;17.024;2023-04-02T01:18:14;15.8;;;13.6;;
68319;SDS011;55168;51.120;17.024;2023-04-02T01:21:13;15.8;;;13.6;;
68319;SDS011;55168;51.120;17.024;2023-04-02T01:22:15;15.8;;;13.6;;
68319;SDS011;55168;51.120;17.024;2023-04-02T01:23:04;15.8;;;13.6;;
68319;SDS011;55168;51.120;17.024;2023-04-02T01:24:10;11.7;;;9.5;;
68319;SDS011;55168;51.120;17.024;2023-04-02T01:25:01;11.7;;;9.5;;
68319;SDS011;55168;51.120;17.024;2023-04-02T01:27:11;11.7;;;9.5;;
68319;SDS011;55168;51.120;17.024;2023-04-02T01:28:08;10.1;;;8.5;;
68319;SDS011;55168;51.120;17.024;2023-04-02T01:29:12;10.1;;;8.5;;
68319;SDS011;55168;51.120;17.024;2023-04-02T01:30:01;10.1;;;8.5;;
68319;SDS011;55168;51.120;17.024;2023-04-02T01:31:01;10.1;;;8.5;;
68319;SDS011;55168;51.120;17.024;2023-04-02T01:32:04;10.1;;;8.5;;
68319;SDS011;55168;51.120;17.024;2023-04-02T01:33:00;10.1;;;8.5;;
68319;SDS011;55168;51.120;17.024;2023-04-02T01:35:00;15.2;;;13.5;;
68319;SDS011;55168;51.120;17.024;2023-04-02T01:36:09;15.2;;;13.5;;
68319;SDS011;55168;51.120;17.024;2023-04-02T01:37:12;15.2;;;13.5;;
68319;SDS011;55168;51.120;17.024;2023-04-02T01:38:07;15.5;;;13.8;;
68319;SDS011;55168;51.120;17.024;2023-04-02T01:40:09;15.5;;;13.8;;
68319;SDS011;55168;51.120;17.024;2023-04-02T01:41:06;15.5;;;13.8;;
68319;SDS011;55168;51.120;17.024;2023-04-02T01:43:17;15.9;;;13.6;;
68319;SDS011;55168;51.120;17.024;2023-04-02T01:45:04;15.9;;;13.6;;
68319;SDS011;55168;51.120;17.024;2023-04-02T01:46:05;15.9;;;13.6;;
68319;SDS011;55168;51.120;17.024;2023-04-02T01:47:01;15.9;;;13.6;;
68319;SDS011;55168;51.120;17.024;2023-04-02T01:48:04;15.9;;;13.6;;
68319;SDS011;55168;51.120;17.024;2023-04-02T01:51:05;17.7;;;14.0;;
68319;SDS011;55168;51.120;17.024;2023-04-02T01:53:03;17.7;;;14.0;;
68319;SDS011;55168;51.120;17.024;2023-04-02T01:54:03;15.9;;;12.4;;
68319;SDS011;55168;51.120;17.024;2023-04-02T01:56:01;15.9;;;12.4;;
68319;SDS011;55168;51.120;17.024;2023-04-02T01:57:00;15.9;;;12.4;;
68319;SDS011;55168;51.120;17.024;2023-04-02T01:58:01;15.9;;;12.4;;
68319;SDS011;55168;51.120;17.024;2023-04-02T01:59:00;15.0;;;13.4;;
68319;SDS011;55168;51.120;17.024;2023-04-02T02:00:00;15.0;;;13.4;;
68319;SDS011;55168;51.120;17.024;2023-04-02T02:01:02;15.0;;;13.4;;
68319;SDS011;55168;51.120;17.024;2023-04-02T02:03:00;15.0;;;13.4;;
68319;SDS011;55168;51.120;17.024;2023-04-02T02:04:00;13.6;;;12.0;;
68319;SDS011;55168;51.120;17.024;2023-04-02T02:06:00;13.6;;;12.0;;
68319;SDS011;55168;51.120;17.024;2023-04-02T02:08:01;13.6;;;12.1;;
68319;SDS011;55168;51.120;17.024;2023-04-02T02:09:03;13.6;;;12.1;;
68319;SDS011;55168;51.120;17.024;2023-04-02T02:10:00;13.6;;;12.1;;
68319;SDS011;55168;51.120;17.024;2023-04-02T02:11:01;13.6;;;12.1;;
68319;SDS011;55168;51.120;17.024;2023-04-02T02:13:00;14.5;;;12.0;;
68319;SDS011;55168;51.120;17.024;2023-04-02T02:15:01;14.5;;;12.0;;
68319;SDS011;55168;51.120;17.024;2023-04-02T02:18:03;14.0;;;12.5;;
68319;SDS011;55168;51.120;17.024;2023-04-02T02:20:01;14.0;;;12.5;;
68319;SDS011;55168;51.120;17.024;2023-04-02T02:21:03;14.0;;;12.5;;
68319;SDS011;55168;51.120;17.024;2023-04-02T02:23:00;15.0;;;12.9;;
68319;SDS011;55168;51.120;17.024;2023-04-02T02:24:00;15.0;;;12.9;;
68319;SDS011;55168;51.120;17.024;2023-04-02T02:31:05;14.1;;;12.6;;
68319;SDS011;55168;51.120;17.024;2023-04-02T02:32:01;14.1;;;12.6;;
68319;SDS011;55168;51.120;17.024;2023-04-02T02:33:06;16.1;;;13.1;;
68319;SDS011;55168;51.120;17.024;2023-04-02T02:35:06;16.1;;;13.1;;
68319;SDS011;55168;51.120;17.024;2023-04-02T02:37:13;16.1;;;13.1;;
68319;SDS011;55168;51.120;17.024;2023-04-02T02:38:21;15.5;;;12.7;;
68319;SDS011;55168;51.120;17.024;2023-04-02T02:39:03;15.5;;;12.7;;
68319;SDS011;55168;51.120;17.024;2023-04-02T02:40:02;15.5;;;12.7;;
68319;SDS011;55168;51.120;17.024;2023-04-02T02:41:03;15.5;;;12.7;;
68319;SDS011;55168;51.120;17.024;2023-04-02T02:43:02;14.1;;;12.6;;
68319;SDS011;55168;51.120;17.024;2023-04-02T02:47:03;14.1;;;12.6;;
68319;SDS011;55168;51.120;17.024;2023-04-02T02:48:01;15.1;;;13.1;;
68319;SDS011;55168;51.120;17.024;2023-04-02T02:51:05;15.1;;;13.1;;
68319;SDS011;55168;51.120;17.024;2023-04-02T02:53:04;12.8;;;11.5;;
68319;SDS011;55168;51.120;17.024;2023-04-02T02:54:02;12.8;;;11.5;;
68319;SDS011;55168;51.120;17.024;2023-04-02T02:58:13;13.9;;;12.4;;
68319;SDS011;55168;51.120;17.024;2023-04-02T03:03:03;12.0;;;10.8;;
68319;SDS011;55168;51.120;17.024;2023-04-02T03:05:00;12.0;;;10.8;;
68319;SDS011;55168;51.120;17.024;2023-04-02T03:06:03;12.0;;;10.8;;
68319;SDS011;55168;51.120;17.024;2023-04-02T03:08:02;11.9;;;10.8;;
68319;SDS011;55168;51.120;17.024;2023-04-02T03:12:10;11.9;;;10.8;;
68319;SDS011;55168;51.120;17.024;2023-04-02T03:14:12;10.6;;;9.4;;
68319;SDS011;55168;51.120;17.024;2023-04-02T03:15:06;10.6;;;9.4;;
68319;SDS011;55168;51.120;17.024;2023-04-02T03:18:07;9.4;;;8.4;;
68319;SDS011;55168;51.120;17.024;2023-04-02T03:19:07;9.4;;;8.4;;
68319;SDS011;55168;51.120;17.024;2023-04-02T03:23:07;9.8;;;8.9;;
68319;SDS011;55168;51.120;17.024;2023-04-02T03:25:05;9.8;;;8.9;;
68319;SDS011;55168;51.120;17.024;2023-04-02T03:26:12;9.8;;;8.9;;
68319;SDS011;55168;51.120;17.024;2023-04-02T03:27:08;9.8;;;8.9;;
68319;SDS011;55168;51.120;17.024;2023-04-02T03:28:03;9.6;;;8.7;;
68319;SDS011;55168;51.120;17.024;2023-04-02T03:29:05;9.6;;;8.7;;
68319;SDS011;55168;51.120;17.024;2023-04-02T03:30:27;9.6;;;8.7;;
68319;SDS011;55168;51.120;17.024;2023-04-02T03:31:05;9.6;;;8.7;;
68319;SDS011;55168;51.120;17.024;2023-04-02T03:32:13;9.6;;;8.7;;
68319;SDS011;55168;51.120;17.024;2023-04-02T03:33:03;8.9;;;8.1;;
68319;SDS011;55168;51.120;17.024;2023-04-02T03:36:13;8.9;;;8.1;;
68319;SDS011;55168;51.120;17.024;2023-04-02T03:38:09;9.3;;;8.4;;
68319;SDS011;55168;51.120;17.024;2023-04-02T03:43:04;9.3;;;8.6;;
68319;SDS011;55168;51.120;17.024;2023-04-02T03:47:09;9.5;;;8.6;;
68319;SDS011;55168;51.120;17.024;2023-04-02T03:48:07;unavailable;;;unavailable;;
68319;SDS011;55168;51.120;17.024;2023-04-02T03:53:01;9.9;;;9.0;;
68319;SDS011;55168;51.120;17.024;2023-04-02T03:55:02;9.9;;;9.0;;
68319;SDS011;55168;51.120;17.024;2023-04-02T04:00:07;10.4;;;9.4;;
68319;SDS011;55168;51.120;17.024;2023-04-02T04:01:19;10.4;;;9.4;;
68319;SDS011;55168;51.120;17.024;2023-04-02T04:02:12;10.4;;;9.4;;
68319;SDS011;55168;51.120;17.024;2023-04-02T04:03:05;10.5;;;9.5;;
68319;SDS011;55168;51.120;17.024;2023-04-02T04:04:09;10.5;;;9.5;;
68319;SDS011;55168;51.120;17.024;2023-04-02T04:05:02;10.5;;;9.5;;
68319;SDS011;55168;51.120;17.024;2023-04-02T04:06:05;10.5;;;9.5;;
68319;SDS011;55168;51.120;17.024;2023-04-02T04:07:00;10.5;;;9.5;;
68319;SDS011;55168;51.120;17.024;2023-04-02T04:08:02;11.0;;;9.9;;
68319;SDS011;55168;51.120;17.024;2023-04-02T04:09:40;11.0;;;9.9;;
68319;SDS011;55168;51.120;17.024;2023-04-02T04:11:06;11.0;;;9.9;;
68319;SDS011;55168;51.120;17.024;2023-04-02T04:12:07;11.0;;;9.9;;
68319;SDS011;55168;51.120;17.024;2023-04-02T04:13:04;11.3;;;10.2;;
68319;SDS011;55168;51.120;17.024;2023-04-02T04:14:17;11.3;;;10.2;;
68319;SDS011;55168;51.120;17.024;2023-04-02T04:15:06;11.3;;;10.2;;
68319;SDS011;55168;51.120;17.024;2023-04-02T04:16:03;11.3;;;10.2;;
68319;SDS011;55168;51.120;17.024;2023-04-02T04:20:08;10.1;;;9.1;;
68319;SDS011;55168;51.120;17.024;2023-04-02T04:21:04;10.1;;;9.1;;
68319;SDS011;55168;51.120;17.024;2023-04-02T04:22:09;10.1;;;9.1;;
68319;SDS011;55168;51.120;17.024;2023-04-02T04:23:09;unavailable;;;unavailable;;
68319;SDS011;55168;51.120;17.024;2023-04-02T04:24:02;10.1;;;9.1;;
68319;SDS011;55168;51.120;17.024;2023-04-02T04:31:03;10.4;;;9.4;;
68319;SDS011;55168;51.120;17.024;2023-04-02T04:33:04;11.7;;;10.5;;
68319;SDS011;55168;51.120;17.024;2023-04-02T04:34:06;11.7;;;10.5;;
68319;SDS011;55168;51.120;17.024;2023-04-02T04:35:05;11.7;;;10.5;;
68319;SDS011;55168;51.120;17.024;2023-04-02T04:36:02;11.7;;;10.5;;
68319;SDS011;55168;51.120;17.024;2023-04-02T04:37:02;11.7;;;10.5;;
68319;SDS011;55168;51.120;17.024;2023-04-02T04:38:04;11.3;;;10.1;;
68319;SDS011;55168;51.120;17.024;2023-04-02T04:39:11;11.3;;;10.1;;
68319;SDS011;55168;51.120;17.024;2023-04-02T04:40:08;11.3;;;10.1;;
68319;SDS011;55168;51.120;17.024;2023-04-02T04:41:11;11.3;;;10.1;;
68319;SDS011;55168;51.120;17.024;2023-04-02T04:42:02;11.3;;;10.1;;
68319;SDS011;55168;51.120;17.024;2023-04-02T04:43:06;10.8;;;9.7;;
68319;SDS011;55168;51.120;17.024;2023-04-02T04:44:06;10.8;;;9.7;;
68319;SDS011;55168;51.120;17.024;2023-04-02T04:45:12;10.8;;;9.7;;
68319;SDS011;55168;51.120;17.024;2023-04-02T04:46:05;10.8;;;9.7;;
68319;SDS011;55168;51.120;17.024;2023-04-02T04:47:12;10.8;;;9.7;;
68319;SDS011;55168;51.120;17.024;2023-04-02T04:48:03;11.6;;;10.3;;
68319;SDS011;55168;51.120;17.024;2023-04-02T04:49:08;11.6;;;10.3;;
68319;SDS011;55168;51.120;17.024;2023-04-02T04:50:11;11.6;;;10.3;;
68319;SDS011;55168;51.120;17.024;2023-04-02T04:51:06;11.6;;;10.3;;
68319;SDS011;55168;51.120;17.024;2023-04-02T04:52:27;11.6;;;10.3;;
68319;SDS011;55168;51.120;17.024;2023-04-02T04:53:05;13.4;;;12.0;;
68319;SDS011;55168;51.120;17.024;2023-04-02T04:54:00;13.4;;;12.0;;
68319;SDS011;55168;51.120;17.024;2023-04-02T04:55:00;13.4;;;12.0;;
68319;SDS011;55168;51.120;17.024;2023-04-02T04:56:03;13.4;;;12.0;;
68319;SDS011;55168;51.120;17.024;2023-04-02T04:59:17;15.0;;;13.4;;
68319;SDS011;55168;51.120;17.024;2023-04-02T05:20:05;17.1;;;14.9;;
68319;SDS011;55168;51.120;17.024;2023-04-02T05:24:23;unavailable;;;unavailable;;
68319;SDS011;55168;51.120;17.024;2023-04-02T05:27:08;15.7;;;13.4;;
68319;SDS011;55168;51.120;17.024;2023-04-02T05:28:32;16.8;;;12.8;;
68319;SDS011;55168;51.120;17.024;2023-04-02T05:30:09;16.8;;;12.8;;
68319;SDS011;55168;51.120;17.024;2023-04-02T05:31:02;16.8;;;12.8;;
68319;SDS011;55168;51.120;17.024;2023-04-02T05:32:08;16.8;;;12.8;;
68319;SDS011;55168;51.120;17.024;2023-04-02T05:33:04;17.7;;;13.6;;
68319;SDS011;55168;51.120;17.024;2023-04-02T05:37:00;17.7;;;13.6;;
68319;SDS011;55168;51.120;17.024;2023-04-02T05:38:00;16.3;;;13.1;;
68319;SDS011;55168;51.120;17.024;2023-04-02T05:39:00;16.3;;;13.1;;
68319;SDS011;55168;51.120;17.024;2023-04-02T05:40:10;16.3;;;13.1;;
68319;SDS011;55168;51.120;17.024;2023-04-02T05:41:03;16.3;;;13.1;;
68319;SDS011;55168;51.120;17.024;2023-04-02T05:42:03;16.3;;;13.1;;
68319;SDS011;55168;51.120;17.024;2023-04-02T05:44:11;14.4;;;12.1;;
68319;SDS011;55168;51.120;17.024;2023-04-02T05:47:08;14.4;;;12.1;;
68319;SDS011;55168;51.120;17.024;2023-04-02T05:49:03;14.8;;;11.6;;
68319;SDS011;55168;51.120;17.024;2023-04-02T05:52:02;14.8;;;11.6;;
68319;SDS011;55168;51.120;17.024;2023-04-02T05:53:08;14.3;;;11.4;;
68319;SDS011;55168;51.120;17.024;2023-04-02T05:56:06;14.3;;;11.4;;
68319;SDS011;55168;51.120;17.024;2023-04-02T05:57:03;14.3;;;11.4;;
68319;SDS011;55168;51.120;17.024;2023-04-02T05:58:05;13.3;;;11.2;;
68319;SDS011;55168;51.120;17.024;2023-04-02T05:59:09;13.3;;;11.2;;
68319;SDS011;55168;51.120;17.024;2023-04-02T06:00:04;13.3;;;11.2;;
68319;SDS011;55168;51.120;17.024;2023-04-02T06:01:10;13.3;;;11.2;;
68319;SDS011;55168;51.120;17.024;2023-04-02T06:02:06;13.3;;;11.2;;
68319;SDS011;55168;51.120;17.024;2023-04-02T06:03:05;12.7;;;10.3;;
68319;SDS011;55168;51.120;17.024;2023-04-02T06:04:06;12.7;;;10.3;;
68319;SDS011;55168;51.120;17.024;2023-04-02T06:05:06;12.7;;;10.3;;
68319;SDS011;55168;51.120;17.024;2023-04-02T06:06:04;12.7;;;10.3;;
68319;SDS011;55168;51.120;17.024;2023-04-02T06:07:06;12.7;;;10.3;;
68319;SDS011;55168;51.120;17.024;2023-04-02T06:08:12;12.8;;;10.2;;
68319;SDS011;55168;51.120;17.024;2023-04-02T06:09:06;12.8;;;10.2;;
68319;SDS011;55168;51.120;17.024;2023-04-02T06:10:09;12.8;;;10.2;;
68319;SDS011;55168;51.120;17.024;2023-04-02T06:11:06;12.8;;;10.2;;
68319;SDS011;55168;51.120;17.024;2023-04-02T06:12:12;12.8;;;10.2;;
68319;SDS011;55168;51.120;17.024;2023-04-02T06:13:05;11.2;;;10.0;;
68319;SDS011;55168;51.120;17.024;2023-04-02T06:14:02;11.2;;;10.0;;
68319;SDS011;55168;51.120;17.024;2023-04-02T06:15:00;11.2;;;10.0;;
68319;SDS011;55168;51.120;17.024;2023-04-02T06:16:00;11.2;;;10.0;;
68319;SDS011;55168;51.120;17.024;2023-04-02T06:17:00;11.2;;;10.0;;
68319;SDS011;55168;51.120;17.024;2023-04-02T06:19:00;9.9;;;8.9;;
68319;SDS011;55168;51.120;17.024;2023-04-02T06:20:01;9.9;;;8.9;;
68319;SDS011;55168;51.120;17.024;2023-04-02T06:26:07;10.1;;;8.4;;
68319;SDS011;55168;51.120;17.024;2023-04-02T06:27:03;10.1;;;8.4;;
68319;SDS011;55168;51.120;17.024;2023-04-02T06:30:04;9.7;;;8.8;;
68319;SDS011;55168;51.120;17.024;2023-04-02T06:31:06;9.7;;;8.8;;
68319;SDS011;55168;51.120;17.024;2023-04-02T06:32:00;9.7;;;8.8;;
68319;SDS011;55168;51.120;17.024;2023-04-02T06:33:00;9.1;;;8.0;;
68319;SDS011;55168;51.120;17.024;2023-04-02T06:34:02;9.1;;;8.0;;
68319;SDS011;55168;51.120;17.024;2023-04-02T06:35:00;9.1;;;8.0;;
68319;SDS011;55168;51.120;17.024;2023-04-02T06:36:00;9.1;;;8.0;;
68319;SDS011;55168;51.120;17.024;2023-04-02T06:37:02;9.1;;;8.0;;
68319;SDS011;55168;51.120;17.024;2023-04-02T06:40:01;unavailable;;;unavailable;;
68319;SDS011;55168;51.120;17.024;2023-04-02T06:41:04;8.0;;;7.0;;
68319;SDS011;55168;51.120;17.024;2023-04-02T06:42:04;8.0;;;7.0;;
68319;SDS011;55168;51.120;17.024;2023-04-02T06:43:04;8.6;;;7.6;;
68319;SDS011;55168;51.120;17.024;2023-04-02T06:44:05;8.6;;;7.6;;
68319;SDS011;55168;51.120;17.024;2023-04-02T06:45:00;8.6;;;7.6;;
68319;SDS011;55168;51.120;17.024;2023-04-02T06:46:07;8.6;;;7.6;;
68319;SDS011;55168;51.120;17.024;2023-04-02T06:47:10;8.6;;;7.6;;
68319;SDS011;55168;51.120;17.024;2023-04-02T06:48:01;6.7;;;6.1;;
68319;SDS011;55168;51.120;17.024;2023-04-02T06:50:12;6.7;;;6.1;;
68319;SDS011;55168;51.120;17.024;2023-04-02T06:51:09;6.7;;;6.1;;
68319;SDS011;55168;51.120;17.024;2023-04-02T06:52:02;6.7;;;6.1;;
68319;SDS011;55168;51.120;17.024;2023-04-02T06:53:03;6.4;;;5.6;;
68319;SDS011;55168;51.120;17.024;2023-04-02T06:54:00;6.4;;;5.6;;
68319;SDS011;55168;51.120;17.024;2023-04-02T06:55:04;6.4;;;5.6;;
68319;SDS011;55168;51.120;17.024;2023-04-02T06:57:00;6.4;;;5.6;;
68319;SDS011;55168;51.120;17.024;2023-04-02T06:58:00;6.7;;;6.0;;
68319;SDS011;55168;51.120;17.024;2023-04-02T06:59:00;6.7;;;6.0;;
68319;SDS011;55168;51.120;17.024;2023-04-02T07:00:00;6.7;;;6.0;;
68319;SDS011;55168;51.120;17.024;2023-04-02T07:01:00;6.7;;;6.0;;
68319;SDS011;55168;51.120;17.024;2023-04-02T07:02:03;6.7;;;6.0;;
68319;SDS011;55168;51.120;17.024;2023-04-02T07:03:03;6.7;;;6.1;;
68319;SDS011;55168;51.120;17.024;2023-04-02T07:04:00;6.7;;;6.1;;
68319;SDS011;55168;51.120;17.024;2023-04-02T07:05:05;6.7;;;6.1;;
68319;SDS011;55168;51.120;17.024;2023-04-02T07:07:00;6.7;;;6.1;;
68319;SDS011;55168;51.120;17.024;2023-04-02T07:08:00;6.7;;;5.9;;
68319;SDS011;55168;51.120;17.024;2023-04-02T07:09:00;6.7;;;5.9;;
68319;SDS011;55168;51.120;17.024;2023-04-02T07:11:00;6.7;;;5.9;;
68319;SDS011;55168;51.120;17.024;2023-04-02T07:12:00;6.7;;;5.9;;
68319;SDS011;55168;51.120;17.024;2023-04-02T07:14:00;6.3;;;5.7;;
68319;SDS011;55168;51.120;17.024;2023-04-02T07:15:00;6.3;;;5.7;;
68319;SDS011;55168;51.120;17.024;2023-04-02T07:16:00;6.3;;;5.7;;
68319;SDS011;55168;51.120;17.024;2023-04-02T07:17:00;6.3;;;5.7;;
68319;SDS011;55168;51.120;17.024;2023-04-02T07:18:00;6.9;;;6.0;;
68319;SDS011;55168;51.120;17.024;2023-04-02T07:19:00;6.9;;;6.0;;
68319;SDS011;55168;51.120;17.024;2023-04-02T07:20:00;6.9;;;6.0;;
68319;SDS011;55168;51.120;17.024;2023-04-02T07:23:00;7.1;;;6.4;;
68319;SDS011;55168;51.120;17.024;2023-04-02T07:27:00;7.1;;;6.4;;
68319;SDS011;55168;51.120;17.024;2023-04-02T07:28:00;7.7;;;6.9;;
68319;SDS011;55168;51.120;17.024;2023-04-02T07:29:00;7.7;;;6.9;;
68319;SDS011;55168;51.120;17.024;2023-04-02T07:30:00;7.7;;;6.9;;
68319;SDS011;55168;51.120;17.024;2023-04-02T07:31:00;7.7;;;6.9;;
68319;SDS011;55168;51.120;17.024;2023-04-02T07:32:00;7.7;;;6.9;;
68319;SDS011;55168;51.120;17.024;2023-04-02T07:33:00;6.6;;;5.9;;
68319;SDS011;55168;51.120;17.024;2023-04-02T07:34:00;6.6;;;5.9;;
68319;SDS011;55168;51.120;17.024;2023-04-02T07:35:00;6.6;;;5.9;;
68319;SDS011;55168;51.120;17.024;2023-04-02T07:36:00;6.6;;;5.9;;
68319;SDS011;55168;51.120;17.024;2023-04-02T07:37:00;6.6;;;5.9;;
68319;SDS011;55168;51.120;17.024;2023-04-02T07:38:00;7.1;;;6.4;;
68319;SDS011;55168;51.120;17.024;2023-04-02T07:39:00;7.1;;;6.4;;
68319;SDS011;55168;51.120;17.024;2023-04-02T07:40:00;7.1;;;6.4;;
68319;SDS011;55168;51.120;17.024;2023-04-02T07:41:04;7.1;;;6.4;;
68319;SDS011;55168;51.120;17.024;2023-04-02T07:42:00;7.1;;;6.4;;
68319;SDS011;55168;51.120;17.024;2023-04-02T07:43:00;7.2;;;6.4;;
68319;SDS011;55168;51.120;17.024;2023-04-02T07:44:00;7.2;;;6.4;;
68319;SDS011;55168;51.120;17.024;2023-04-02T07:45:00;7.2;;;6.4;;
68319;SDS011;55168;51.120;17.024;2023-04-02T07:46:00;7.2;;;6.4;;
68319;SDS011;55168;51.120;17.024;2023-04-02T07:47:00;7.2;;;6.4;;
68319;SDS011;55168;51.120;17.024;2023-04-02T07:48:10;6.0;;;5.5;;
68319;SDS011;55168;51.120;17.024;2023-04-02T07:49:00;6.0;;;5.5;;
68319;SDS011;55168;51.120;17.024;2023-04-02T07:50:00;6.0;;;5.5;;
68319;SDS011;55168;51.120;17.024;2023-04-02T07:51:00;6.0;;;5.5;;
68319;SDS011;55168;51.120;17.024;2023-04-02T07:52:00;6.0;;;5.5;;
68319;SDS011;55168;51.120;17.024;2023-04-02T07:53:00;6.9;;;5.4;;
68319;SDS011;55168;51.120;17.024;2023-04-02T07:54:00;6.9;;;5.4;;
68319;SDS011;55168;51.120;17.024;2023-04-02T07:55:00;6.9;;;5.4;;
68319;SDS011;55168;51.120;17.024;2023-04-02T07:57:00;6.9;;;5.9;;
68319;SDS011;55168;51.120;17.024;2023-04-02T07:58:00;6.9;;;5.9;;
68319;SDS011;55168;51.120;17.024;2023-04-02T07:59:00;6.9;;;5.9;;
68319;SDS011;55168;51.120;17.024;2023-04-02T08:00:00;6.9;;;5.9;;
68319;SDS011;55168;51.120;17.024;2023-04-02T08:01:00;6.9;;;5.9;;
68319;SDS011;55168;51.120;17.024;2023-04-02T08:02:00;6.7;;;6.0;;
68319;SDS011;55168;51.120;17.024;2023-04-02T08:03:00;6.7;;;6.0;;
68319;SDS011;55168;51.120;17.024;2023-04-02T08:04:02;6.7;;;6.0;;
68319;SDS011;55168;51.120;17.024;2023-04-02T08:05:00;6.7;;;6.0;;
68319;SDS011;55168;51.120;17.024;2023-04-02T08:06:00;6.7;;;6.0;;
68319;SDS011;55168;51.120;17.024;2023-04-02T08:07:00;6.3;;;5.7;;
68319;SDS011;55168;51.120;17.024;2023-04-02T08:08:00;6.3;;;5.7;;
68319;SDS011;55168;51.120;17.024;2023-04-02T08:09:00;6.3;;;5.7;;
68319;SDS011;55168;51.120;17.024;2023-04-02T08:10:01;6.3;;;5.7;;
68319;SDS011;55168;51.120;17.024;2023-04-02T08:11:00;6.3;;;5.7;;
68319;SDS011;55168;51.120;17.024;2023-04-02T08:12:00;6.4;;;5.6;;
68319;SDS011;55168;51.120;17.024;2023-04-02T08:13:00;6.4;;;5.6;;
68319;SDS011;55168;51.120;17.024;2023-04-02T08:14:00;6.4;;;5.6;;
68319;SDS011;55168;51.120;17.024;2023-04-02T08:15:00;6.4;;;5.6;;
68319;SDS011;55168;51.120;17.024;2023-04-02T08:16:01;6.4;;;5.6;;
68319;SDS011;55168;51.120;17.024;2023-04-02T08:17:00;6.5;;;5.9;;
68319;SDS011;55168;51.120;17.024;2023-04-02T08:19:00;6.5;;;5.9;;
68319;SDS011;55168;51.120;17.024;2023-04-02T08:20:00;6.5;;;5.9;;
68319;SDS011;55168;51.120;17.024;2023-04-02T08:21:00;6.5;;;5.9;;
68319;SDS011;55168;51.120;17.024;2023-04-02T08:22:00;6.7;;;6.1;;
68319;SDS011;55168;51.120;17.024;2023-04-02T08:23:00;6.7;;;6.1;;
68319;SDS011;55168;51.120;17.024;2023-04-02T08:24:00;6.7;;;6.1;;
68319;SDS011;55168;51.120;17.024;2023-04-02T08:25:00;6.7;;;6.1;;
68319;SDS011;55168;51.120;17.024;2023-04-02T08:26:00;6.7;;;6.1;;
68319;SDS011;55168;51.120;17.024;2023-04-02T08:27:00;7.5;;;5.7;;
68319;SDS011;55168;51.120;17.024;2023-04-02T08:31:00;7.5;;;5.7;;
68319;SDS011;55168;51.120;17.024;2023-04-02T08:32:00;5.9;;;5.3;;
68319;SDS011;55168;51.120;17.024;2023-04-02T08:37:00;5.8;;;5.0;;
68319;SDS011;55168;51.120;17.024;2023-04-02T08:38:00;5.8;;;5.0;;
68319;SDS011;55168;51.120;17.024;2023-04-02T08:39:00;5.8;;;5.0;;
68319;SDS011;55168;51.120;17.024;2023-04-02T08:40:00;5.8;;;5.0;;
68319;SDS011;55168;51.120;17.024;2023-04-02T08:41:01;5.8;;;5.0;;
68319;SDS011;55168;51.120;17.024;2023-04-02T08:42:06;6.1;;;5.5;;
68319;SDS011;55168;51.120;17.024;2023-04-02T08:43:08;6.1;;;5.5;;
68319;SDS011;55168;51.120;17.024;2023-04-02T08:44:21;6.1;;;5.5;;
68319;SDS011;55168;51.120;17.024;2023-04-02T08:47:04;5.8;;;5.2;;
68319;SDS011;55168;51.120;17.024;2023-04-02T08:49:07;5.8;;;5.1;;
68319;SDS011;55168;51.120;17.024;2023-04-02T08:50:02;5.8;;;5.1;;
68319;SDS011;55168;51.120;17.024;2023-04-02T08:51:01;5.8;;;5.1;;
68319;SDS011;55168;51.120;17.024;2023-04-02T08:52:00;5.8;;;5.1;;
68319;SDS011;55168;51.120;17.024;2023-04-02T08:53:03;5.8;;;5.1;;
68319;SDS011;55168;51.120;17.024;2023-04-02T08:54:06;5.6;;;5.1;;
68319;SDS011;55168;51.120;17.024;2023-04-02T08:55:01;5.6;;;5.1;;
68319;SDS011;55168;51.120;17.024;2023-04-02T08:56:15;5.6;;;5.1;;
68319;SDS011;55168;51.120;17.024;2023-04-02T08:57:06;5.6;;;5.1;;
68319;SDS011;55168;51.120;17.024;2023-04-02T08:59:02;5.4;;;4.9;;
68319;SDS011;55168;51.120;17.024;2023-04-02T09:01:01;5.4;;;4.9;;
68319;SDS011;55168;51.120;17.024;2023-04-02T09:03:05;5.4;;;4.9;;
68319;SDS011;55168;51.120;17.024;2023-04-02T09:04:02;6.4;;;5.8;;
68319;SDS011;55168;51.120;17.024;2023-04-02T09:05:03;6.4;;;5.8;;
68319;SDS011;55168;51.120;17.024;2023-04-02T09:06:01;6.4;;;5.8;;
68319;SDS011;55168;51.120;17.024;2023-04-02T09:07:00;6.4;;;5.8;;
68319;SDS011;55168;51.120;17.024;2023-04-02T09:08:02;6.4;;;5.8;;
68319;SDS011;55168;51.120;17.024;2023-04-02T09:09:00;6.4;;;5.8;;
68319;SDS011;55168;51.120;17.024;2023-04-02T09:10:00;6.4;;;5.8;;
68319;SDS011;55168;51.120;17.024;2023-04-02T09:12:01;6.4;;;5.8;;
68319;SDS011;55168;51.120;17.024;2023-04-02T09:13:00;6.4;;;5.8;;
68319;SDS011;55168;51.120;17.024;2023-04-02T09:14:04;6.5;;;5.9;;
68319;SDS011;55168;51.120;17.024;2023-04-02T09:15:15;6.5;;;5.9;;
68319;SDS011;55168;51.120;17.024;2023-04-02T09:16:10;6.5;;;5.9;;
68319;SDS011;55168;51.120;17.024;2023-04-02T09:17:02;6.5;;;5.9;;
68319;SDS011;55168;51.120;17.024;2023-04-02T09:19:00;6.2;;;5.6;;
68319;SDS011;55168;51.120;17.024;2023-04-02T09:21:06;6.2;;;5.6;;